Time;durP1;ratioP1;P1;durP2;ratioP2;P2;SDS_P1;SDS_P2;PMS_P1;PMS_P2;Temp;Humidity;BMP_temperature;BMP_pressure;BME280_temperature;BME280_humidity;BME280_pressure;Samples;Min_cycle;Max_cycle;Signal;HPM_P1;HPM_P2
2022/12/19 07:06:07;;;;;;;11.73;10.30;;;;;;;5.82;100.00;101364.16;5290786;28;20422;-73
2022/12/19 07:08:38;;;;;;;12.90;11.20;;;;;;;5.83;100.00;101358.44;5266273;28;20028;-74
2022/12/19 07:11:09;;;;;;;13.73;11.35;;;;;;;5.88;100.00;101366.78;5279704;28;20051;-73
2022/12/19 07:13:41;;;;;;;14.88;11.07;;;;;;;5.87;100.00;101356.00;5263368;28;20498;-73
2022/12/19 07:16:12;;;;;;;14.82;12.05;;;;;;;5.89;100.00;101351.09;5258678;28;20033;-74
2022/12/19 07:18:43;;;;;;;14.50;11.00;;;;;;;5.91;100.00;101346.19;5265220;28;20025;-73
2022/12/19 07:21:15;;;;;;;11.73;10.55;;;;;;;5.90;100.00;101355.50;5248526;28;20060;-73
2022/12/19 07:23:47;;;;;;;12.55;10.68;;;;;;;5.92;100.00;101355.28;5272118;28;20384;-73
2022/12/19 07:26:18;;;;;;;12.63;10.43;;;;;;;5.94;100.00;101359.50;5259186;28;20040;-73
2022/12/19 07:28:49;;;;;;;12.13;10.02;;;;;;;5.97;100.00;101352.66;5252473;28;20026;-73
2022/12/19 07:31:20;;;;;;;13.23;10.95;;;;;;;6.00;100.00;101355.75;5254775;28;20040;-73
2022/12/19 07:33:52;;;;;;;12.77;11.52;;;;;;;6.00;100.00;101358.50;5263508;28;20097;-73
2022/12/19 07:36:23;;;;;;;11.02;9.88;;;;;;;5.98;100.00;101366.19;5262914;28;20018;-73
2022/12/19 07:38:55;;;;;;;10.65;9.55;;;;;;;6.06;100.00;101364.94;5252557;28;20103;-74
2022/12/19 07:41:35;;;;;;;12.43;10.30;;;;;;;6.05;100.00;101355.00;5270459;28;20032;-73
2022/12/19 07:44:07;;;;;;;11.52;9.77;;;;;;;6.04;100.00;101359.69;5257127;28;20047;-73
2022/12/19 07:46:38;;;;;;;11.30;10.10;;;;;;;6.06;100.00;101363.03;5257616;28;20436;-74
2022/12/19 07:49:09;;;;;;;10.75;9.45;;;;;;;6.06;100.00;101352.00;5257741;28;20029;-74
2022/12/19 07:51:43;;;;;;;9.68;8.73;;;;;;;6.08;100.00;101355.38;5258143;28;20484;-74
2022/12/19 07:54:14;;;;;;;11.75;8.40;;;;;;;6.10;100.00;101372.44;5255085;28;20054;-74
2022/12/19 07:56:49;;;;;;;9.98;8.05;;;;;;;6.13;100.00;101368.38;5257515;28;20108;-74
2022/12/19 07:59:20;;;;;;;9.50;8.52;;;;;;;6.18;100.00;101375.88;5258305;28;20376;-73
2022/12/19 08:01:51;;;;;;;10.73;8.60;;;;;;;6.19;100.00;101372.91;5258996;28;20030;-73
2022/12/19 08:04:25;;;;;;;9.88;8.23;;;;;;;6.20;100.00;101382.00;5257288;28;20422;-74
2022/12/19 08:06:57;;;;;;;10.35;9.02;;;;;;;6.24;100.00;101386.78;5258662;28;20499;-74
2022/12/19 08:09:29;;;;;;;9.80;8.80;;;;;;;6.24;100.00;101383.19;5270862;28;20033;-74
2022/12/19 08:12:00;;;;;;;10.15;8.63;;;;;;;6.25;100.00;101385.66;5256928;28;20032;-74
2022/12/19 08:14:31;;;;;;;9.48;7.45;;;;;;;6.30;100.00;101402.28;5258288;28;20353;-73
2022/12/19 08:17:06;;;;;;;8.82;7.93;;;;;;;6.32;100.00;101391.03;5246948;28;20183;-74
2022/12/19 08:19:37;;;;;;;9.27;7.68;;;;;;;6.37;100.00;101388.38;5254532;28;20051;-74
2022/12/19 08:22:09;;;;;;;11.13;8.27;;;;;;;6.38;100.00;101384.53;5244402;28;20022;-74
2022/12/19 08:24:40;;;;;;;11.10;7.60;;;;;;;6.42;100.00;101385.72;5243832;28;20037;-74
2022/12/19 08:27:11;;;;;;;7.75;7.05;;;;;;;6.46;100.00;101383.28;5238157;28;20492;-74
2022/12/19 08:29:43;;;;;;;8.98;7.53;;;;;;;6.46;100.00;101383.28;5223465;28;20045;-74
2022/12/19 08:32:15;;;;;;;9.32;7.78;;;;;;;6.45;100.00;101384.38;5222889;28;20025;-74
2022/12/19 08:34:49;;;;;;;8.75;7.25;;;;;;;6.50;100.00;101384.47;5224097;28;20022;-74
2022/12/19 08:37:21;;;;;;;8.68;7.78;;;;;;;6.51;100.00;101377.84;5244012;28;20021;-73
2022/12/19 08:39:52;;;;;;;9.65;7.32;;;;;;;6.50;100.00;101388.03;5243252;28;20028;-73
2022/12/19 08:42:24;;;;;;;10.07;7.60;;;;;;;6.52;100.00;101399.66;5243922;28;20096;-73
2022/12/19 08:44:55;;;;;;;8.38;7.45;;;;;;;6.54;100.00;101402.16;5232094;28;20030;-73
2022/12/19 08:47:26;;;;;;;8.88;7.32;;;;;;;6.57;100.00;101396.16;5222496;28;20022;-73
2022/12/19 08:50:00;;;;;;;8.38;7.57;;;;;;;6.62;100.00;101399.00;5223119;28;20086;-73
2022/12/19 08:52:32;;;;;;;8.05;6.55;;;;;;;6.63;100.00;101395.16;5223042;28;20028;-74
2022/12/19 08:55:03;;;;;;;11.35;7.68;;;;;;;6.69;100.00;101387.81;5222618;28;20030;-73
2022/12/19 08:57:35;;;;;;;8.57;7.18;;;;;;;6.67;100.00;101392.72;5223431;28;20479;-74
2022/12/19 09:00:07;;;;;;;7.90;7.10;;;;;;;6.65;100.00;101398.50;5222898;28;20104;-73
2022/12/19 09:02:38;;;;;;;8.52;7.38;;;;;;;6.71;100.00;101396.66;5224048;28;20026;-73
2022/12/19 09:05:09;;;;;;;7.03;6.30;;;;;;;6.72;100.00;101388.16;5223424;28;20401;-73
2022/12/19 09:07:41;;;;;;;8.52;7.53;;;;;;;6.75;100.00;101386.81;5233814;28;20033;-75
2022/12/19 09:10:12;;;;;;;7.25;6.55;;;;;;;6.81;100.00;101398.75;5244383;28;20064;-75
2022/12/19 09:12:43;;;;;;;7.28;6.57;;;;;;;6.83;100.00;101400.19;5243579;28;20025;-75
2022/12/19 09:15:18;;;;;;;8.45;6.15;;;;;;;6.88;100.00;101396.66;5243298;28;20053;-75
2022/12/19 09:17:49;;;;;;;6.45;5.85;;;;;;;6.91;100.00;101416.28;5243443;28;20358;-75
2022/12/19 09:20:20;;;;;;;6.97;6.28;;;;;;;6.91;100.00;101410.78;5243679;28;20033;-75
2022/12/19 09:22:52;;;;;;;8.00;6.57;;;;;;;6.95;100.00;101409.19;5242809;28;20120;-73
2022/12/19 09:25:23;;;;;;;6.97;6.20;;;;;;;6.95;100.00;101406.44;5243439;28;20030;-72
2022/12/19 09:27:54;;;;;;;7.50;6.75;;;;;;;6.98;100.00;101413.38;5242408;28;20048;-73
2022/12/19 09:30:26;;;;;;;7.97;6.25;;;;;;;6.99;100.00;101408.69;5242740;28;20028;-74
2022/12/19 09:32:57;;;;;;;7.03;6.30;;;;;;;6.99;100.00;101415.03;5243343;28;20025;-73
2022/12/19 09:35:29;;;;;;;7.03;5.68;;;;;;;7.00;100.00;101405.66;5241078;28;20746;-74
2022/12/19 09:38:02;;;;;;;7.90;6.93;;;;;;;7.03;100.00;101409.84;5243191;28;20480;-73
2022/12/19 09:41:02;;;;;;;6.85;6.10;;;;;;;7.02;100.00;101410.94;5242623;28;20027;-73
2022/12/19 09:43:59;;;;;;;10.05;6.40;;;;;;;7.12;100.00;101402.81;5236075;28;20144;-73
2022/12/19 09:46:50;;;;;;;10.38;7.63;;;;;;;7.14;100.00;101406.16;5232365;28;20041;-73
2022/12/19 09:49:25;;;;;;;8.07;6.00;;;;;;;7.14;100.00;101412.50;5242006;28;20026;-74
2022/12/19 09:52:20;;;;;;;;;;;;;;;7.24;100.00;101416.53;5241884;28;20032;-74
2022/12/19 09:55:10;;;;;;;6.97;6.20;;;;;;;7.24;100.00;101406.31;5239236;28;20351;-72
2022/12/19 09:58:00;;;;;;;8.80;6.47;;;;;;;7.27;100.00;101404.97;5241381;28;20033;-73
2022/12/19 10:00:36;;;;;;;7.70;6.38;;;;;;;7.32;100.00;101416.91;5242047;28;20116;-72
2022/12/19 10:03:23;;;;;;;8.32;6.07;;;;;;;7.35;100.00;101421.91;5241995;28;20028;-73
2022/12/19 10:06:01;;;;;;;7.18;5.82;;;;;;;7.38;100.00;101426.91;5241849;28;20395;-73
2022/12/19 10:08:42;;;;;;;7.38;5.32;;;;;;;7.45;100.00;101417.63;5241546;28;20413;-72
2022/12/19 10:11:14;;;;;;;6.35;5.03;;;;;;;7.47;100.00;101423.75;5241393;28;20120;-72
2022/12/19 10:14:00;;;;;;;6.05;5.45;;;;;;;7.49;100.00;101418.78;5221420;28;20116;-72
2022/12/19 10:17:04;;;;;;;6.68;5.78;;;;;;;7.52;100.00;101421.06;5221333;28;20026;-73
2022/12/19 10:19:52;;;;;;;6.45;4.80;;;;;;;7.52;100.00;101419.13;5220769;28;20049;-72
2022/12/19 10:22:38;;;;;;;6.60;6.00;;;;;;;7.53;100.00;101417.19;5221176;28;20037;-76
2022/12/19 10:25:12;;;;;;;6.65;5.47;;;;;;;7.56;100.00;101414.75;5223273;28;20072;-73
2022/12/19 10:28:04;;;;;;;6.13;5.53;;;;;;;7.59;100.00;101418.91;5241953;28;20469;-75
2022/12/19 10:30:43;;;;;;;7.28;6.10;;;;;;;7.60;100.00;101420.59;5260098;28;20029;-74
2022/12/19 10:33:44;;;;;;;6.45;5.22;;;;;;;7.63;100.00;101426.44;5255423;28;20361;-72
2022/12/19 10:36:18;;;;;;;9.15;6.57;;;;;;;7.67;100.00;101426.78;5257957;28;20395;-77
2022/12/19 10:39:02;;;;;;;6.80;5.68;;;;;;;7.67;100.00;101426.78;5261756;28;20324;-73
2022/12/19 10:41:36;;;;;;;6.80;5.55;;;;;;;7.66;100.00;101415.97;5258005;28;20042;-77
2022/12/19 10:44:09;;;;;;;6.40;5.72;;;;;;;7.68;100.00;101422.91;5232215;28;20089;-79
2022/12/19 10:46:46;;;;;;;6.10;5.40;;;;;;;7.66;100.00;101416.81;5241992;28;20038;-74
2022/12/19 10:49:25;;;;;;;7.10;5.38;;;;;;;7.70;100.00;101434.53;5241688;28;20109;-72
2022/12/19 10:51:57;;;;;;;5.95;4.82;;;;;;;7.68;100.00;101425.69;5241530;28;20491;-74
2022/12/19 10:54:35;;;;;;;5.35;4.85;;;;;;;7.70;100.00;101425.44;5240800;28;20038;-72
2022/12/19 10:57:27;;;;;;;6.82;5.30;;;;;;;7.64;100.00;101418.97;5241556;28;20064;-72
2022/12/19 11:00:16;;;;;;;8.45;6.82;;;;;;;7.62;100.00;101418.44;5236660;28;20024;-72
2022/12/19 11:02:52;;;;;;;7.32;6.05;;;;;;;7.61;100.00;101420.34;5220414;28;20018;-72
2022/12/19 11:05:37;;;;;;;5.53;4.95;;;;;;;7.56;100.00;101402.88;5220491;28;20400;-73
2022/12/19 11:08:09;;;;;;;5.82;4.95;;;;;;;7.57;100.00;101410.09;5220127;28;20521;-72
2022/12/19 11:10:52;;;;;;;6.00;5.38;;;;;;;7.56;100.00;101419.44;5220601;28;20088;-73
2022/12/19 11:13:25;;;;;;;6.60;5.68;;;;;;;7.52;100.00;101408.09;5237023;28;20034;-72
2022/12/19 11:15:58;;;;;;;8.18;5.65;;;;;;;7.51;100.00;101411.09;5242549;28;20444;-72
2022/12/19 11:18:40;;;;;;;6.65;5.72;;;;;;;7.53;100.00;101397.88;5232302;28;20100;-70
2022/12/19 11:21:23;;;;;;;7.60;5.88;;;;;;;7.56;100.00;101392.66;5259652;28;20033;-71
2022/12/19 11:24:01;;;;;;;7.22;6.43;;;;;;;7.54;100.00;101388.50;5261403;28;20029;-70
2022/12/19 11:26:38;;;;;;;7.78;5.70;;;;;;;7.56;100.00;101395.41;5254870;28;20018;-73
2022/12/19 11:29:39;;;;;;;6.57;5.78;;;;;;;7.56;100.00;101386.31;5255527;28;20025;-72
2022/12/19 11:32:31;;;;;;;5.97;5.43;;;;;;;7.64;100.00;101383.09;5252851;28;20469;-72
2022/12/19 11:35:14;;;;;;;6.68;5.97;;;;;;;7.62;100.00;101375.09;5230819;28;20499;-72
2022/12/19 11:37:58;;;;;;;12.20;6.50;;;;;;;7.67;100.00;101368.81;5231091;28;20350;-72
2022/12/19 11:40:55;;;;;;;7.25;5.30;;;;;;;7.73;100.00;101375.22;5261687;28;20033;-73
2022/12/19 11:43:39;;;;;;;7.18;5.50;;;;;;;7.72;100.00;101377.16;5260956;28;20467;-74
2022/12/19 11:46:19;;;;;;;7.35;5.45;;;;;;;7.76;100.00;101363.66;5256635;28;20069;-73
2022/12/19 11:49:25;;;;;;;8.65;6.07;;;;;;;7.80;100.00;101364.81;5253187;28;20029;-74
2022/12/19 11:52:13;;;;;;;7.97;6.50;;;;;;;7.82;100.00;101366.22;5239181;28;20508;-73
2022/12/19 11:54:55;;;;;;;8.00;5.57;;;;;;;7.87;100.00;101357.13;5236969;28;20379;-72
2022/12/19 11:57:26;;;;;;;6.07;4.75;;;;;;;7.91;100.00;101376.81;5264486;28;20024;-72
2022/12/19 11:59:57;;;;;;;6.53;4.88;;;;;;;7.99;100.00;101362.53;5259039;28;20017;-72
2022/12/19 12:02:44;;;;;;;7.00;4.70;;;;;;;8.03;100.00;101360.91;5253616;28;20049;-72
2022/12/19 12:05:55;;;;;;;6.88;4.40;;;;;;;8.09;100.00;101359.88;5264137;28;20398;-72
2022/12/19 12:08:50;;;;;;;4.72;4.25;;;;;;;8.15;100.00;101356.06;5248105;28;20022;-73
2022/12/19 12:11:28;;;;;;;5.97;4.70;;;;;;;8.20;100.00;101336.75;5245150;28;20044;-72
2022/12/19 12:14:17;;;;;;;4.50;3.97;;;;;;;8.25;100.00;101344.28;5244062;28;20041;-71
2022/12/19 12:17:15;;;;;;;7.88;4.97;;;;;;;8.27;100.00;101331.84;5243982;28;20527;-72
2022/12/19 12:19:56;;;;;;;6.45;4.47;;;;;;;8.31;100.00;101336.84;5257958;28;20031;-70
2022/12/19 12:22:49;;;;;;;5.90;4.13;;;;;;;8.35;100.00;101325.03;5264277;28;20472;-71
2022/12/19 12:25:39;;;;;;;4.63;4.10;;;;;;;8.40;100.00;101329.78;5249354;28;20033;-71
2022/12/19 12:28:35;;;;;;;6.35;4.18;;;;;;;8.47;100.00;101327.66;5251165;28;20033;-71
2022/12/19 12:31:24;;;;;;;4.75;3.85;;;;;;;8.51;100.00;101320.47;5251697;28;20460;-70
2022/12/19 12:34:02;;;;;;;6.85;3.95;;;;;;;8.58;100.00;101325.78;5257302;28;20030;-72
2022/12/19 12:36:47;;;;;;;5.60;3.92;;;;;;;8.54;100.00;101319.97;5263347;28;20036;-72
2022/12/19 12:39:25;;;;;;;6.53;3.97;;;;;;;8.53;100.00;101323.81;5262093;28;20112;-72
2022/12/19 12:42:12;;;;;;;6.05;4.28;;;;;;;8.56;100.00;101330.75;5255674;28;20084;-72
2022/12/19 12:44:47;;;;;;;6.10;4.10;;;;;;;8.58;100.00;101328.56;5260610;28;20055;-72
2022/12/19 12:47:23;;;;;;;4.43;3.58;;;;;;;8.60;100.00;101321.66;5248437;28;20037;-72
2022/12/19 12:49:59;;;;;;;7.75;5.10;;;;;;;8.64;100.00;101319.19;5260626;28;20025;-72
2022/12/19 12:52:42;;;;;;;6.80;6.15;;;;;;;8.64;100.00;101314.53;5258360;28;20468;-71
2022/12/19 12:55:24;;;;;;;5.63;4.70;;;;;;;8.64;100.00;101319.19;5243016;28;20112;-74
2022/12/19 12:57:57;;;;;;;6.35;4.40;;;;;;;8.67;100.00;101319.50;5253713;28;20037;-70
2022/12/19 13:00:31;;;;;;;5.43;3.85;;;;;;;8.71;100.00;101312.34;5229857;28;20489;-70
2022/12/19 13:03:18;;;;;;;5.05;4.03;;;;;;;8.77;100.00;101306.84;5239343;28;20026;-71
2022/12/19 13:06:03;;;;;;;4.85;3.50;;;;;;;8.81;100.00;101285.84;5239825;28;20128;-71
2022/12/19 13:08:44;;;;;;;5.28;3.58;;;;;;;8.84;100.00;101293.63;5238832;28;20025;-71
2022/12/19 13:14:32;;;;;;;5.90;4.25;;;;;;;8.91;100.00;101267.38;5242197;28;20033;-70
2022/12/19 13:17:09;;;;;;;4.20;3.80;;;;;;;8.95;100.00;101264.94;5224586;28;20034;-70
2022/12/19 13:20:15;;;;;;;4.90;3.47;;;;;;;8.96;100.00;101260.22;5222256;28;20053;-70
2022/12/19 13:22:59;;;;;;;4.60;3.30;;;;;;;8.95;100.00;101253.88;5224475;28;20445;-71
2022/12/19 13:25:33;;;;;;;6.75;4.22;;;;;;;8.91;100.00;101256.31;5242580;28;20064;-70
2022/12/19 13:28:19;;;;;;;4.15;3.20;;;;;;;8.98;100.00;101253.31;5228127;28;20030;-73
2022/12/19 13:31:09;;;;;;;4.40;3.80;;;;;;;8.98;100.00;101247.78;5256976;28;20036;-71
2022/12/19 13:34:15;;;;;;;7.10;3.60;;;;;;;9.01;100.00;101250.00;5247474;28;20068;-69
2022/12/19 13:36:49;;;;;;;5.55;3.15;;;;;;;9.01;100.00;101238.94;5232467;28;20056;-69
2022/12/19 13:39:39;;;;;;;6.65;3.33;;;;;;;9.06;100.00;101243.69;5241500;28;20038;-69
2022/12/19 13:45:07;;;;;;;5.63;3.88;;;;;;;9.06;100.00;101227.06;5255974;28;20029;-70
2022/12/19 13:47:42;;;;;;;5.55;3.72;;;;;;;9.04;100.00;101230.09;5263260;28;20025;-69
2022/12/19 13:50:30;;;;;;;5.13;3.53;;;;;;;9.03;100.00;101238.69;5240002;28;20064;-71
2022/12/19 13:53:01;;;;;;;9.30;8.27;;;;;;;9.03;100.00;101238.69;5221905;28;20281;-70
2022/12/19 13:55:33;;;;;;;4.50;3.78;;;;;;;8.98;100.00;101239.50;5221056;28;20033;-70
2022/12/19 13:58:04;;;;;;;5.40;3.45;;;;;;;8.96;100.00;101241.69;5225818;28;20356;-69
2022/12/19 14:00:40;;;;;;;5.05;3.75;;;;;;;8.99;100.00;101235.59;5242534;28;20021;-70
2022/12/19 14:03:20;;;;;;;6.15;5.55;;;;;;;8.97;100.00;101232.28;5241702;28;20037;-70
2022/12/19 14:05:51;;;;;;;4.40;3.90;;;;;;;9.01;100.00;101222.34;5251420;28;20128;-69
2022/12/19 14:08:24;;;;;;;5.65;4.03;;;;;;;8.98;100.00;101214.59;5245019;28;20108;-70
2022/12/19 14:10:56;;;;;;;4.38;3.80;;;;;;;8.96;100.00;101215.97;5262031;28;20452;-70
2022/12/19 14:16:18;;;;;;;4.13;3.70;;;;;;;9.01;99.15;101202.97;5242270;28;20033;-69
2022/12/19 14:18:49;;;;;;;5.57;3.92;;;;;;;8.99;99.98;101199.66;5240667;28;20105;-69
2022/12/19 14:21:26;;;;;;;4.28;3.70;;;;;;;8.96;100.00;101205.72;5241974;28;20031;-68
2022/12/19 14:24:18;;;;;;;5.10;3.83;;;;;;;8.98;99.71;101203.53;5237216;28;20097;-69
2022/12/19 14:27:01;;;;;;;5.90;4.15;;;;;;;9.04;98.60;101202.44;5237860;28;20068;-68
2022/12/19 14:29:43;;;;;;;3.75;3.35;;;;;;;9.06;98.33;101200.22;5262083;28;20108;-67
2022/12/19 14:32:16;;;;;;;4.68;3.53;;;;;;;9.10;98.29;101206.91;5242213;28;20049;-68
2022/12/19 14:34:49;;;;;;;4.45;3.58;;;;;;;9.07;97.98;101201.88;5260260;28;20075;-69
2022/12/19 14:37:32;;;;;;;5.63;3.58;;;;;;;9.08;97.85;101198.03;5262001;28;20025;-69
2022/12/19 14:40:17;;;;;;;4.28;3.33;;;;;;;9.08;98.56;101192.50;5261421;28;20124;-70
2022/12/19 14:45:44;;;;;;;5.78;3.75;;;;;;;9.12;98.36;101178.94;5220020;28;20396;-71
2022/12/19 14:48:31;;;;;;;4.43;3.47;;;;;;;9.11;97.56;101178.13;5253088;28;20032;-72
2022/12/19 14:51:24;;;;;;;4.47;3.95;;;;;;;9.14;97.33;101185.88;5261984;28;20044;-73
2022/12/19 14:54:08;;;;;;;4.75;3.47;;;;;;;9.13;97.85;101186.97;5254655;28;20033;-73
2022/12/19 14:56:44;;;;;;;4.63;3.53;;;;;;;9.14;96.76;101196.94;5241429;28;20034;-73
2022/12/19 14:59:35;;;;;;;3.55;3.17;;;;;;;9.14;96.80;101196.94;5226097;28;20026;-71
2022/12/19 15:02:06;;;;;;;3.85;3.20;;;;;;;9.17;97.51;101197.50;5248400;28;20025;-71
2022/12/19 15:04:45;;;;;;;4.43;3.88;;;;;;;9.17;96.34;101189.19;5256308;28;20084;-71
2022/12/19 15:07:26;;;;;;;3.50;2.85;;;;;;;9.15;96.59;101197.75;5240663;28;20032;-71
2022/12/19 15:10:02;;;;;;;5.45;4.53;;;;;;;9.22;95.18;101197.53;5241801;28;20064;-68
2022/12/19 15:15:40;;;;;;;5.85;5.18;;;;;;;9.21;95.65;101202.22;5247021;28;20441;-69
2022/12/19 15:18:22;;;;;;;4.90;3.58;;;;;;;9.27;95.12;101209.44;5250212;28;20052;-73
2022/12/19 15:20:56;;;;;;;6.03;3.63;;;;;;;9.24;95.63;101215.50;5260620;28;20115;-74
2022/12/19 15:23:28;;;;;;;3.45;3.00;;;;;;;9.27;95.76;101211.38;5246497;28;20028;-73
2022/12/19 15:26:02;;;;;;;4.78;3.63;;;;;;;9.32;95.38;101223.28;5268090;28;20030;-71
2022/12/19 15:28:42;;;;;;;5.70;4.03;;;;;;;9.28;95.49;101224.94;5244538;28;20033;-72
2022/12/19 15:31:37;;;;;;;5.85;4.72;;;;;;;9.33;94.72;101226.88;5244523;28;20207;-72
2022/12/19 15:34:24;;;;;;;4.75;4.18;;;;;;;9.34;94.59;101225.78;5224007;28;20032;-72
2022/12/19 15:36:56;;;;;;;4.95;3.35;;;;;;;9.31;94.86;101223.56;5224423;28;20465;-73
2022/12/19 15:39:30;;;;;;;5.72;3.45;;;;;;;9.31;94.32;101229.94;5224219;28;20381;-72
2022/12/19 15:42:02;;;;;;;3.67;3.38;;;;;;;9.32;94.24;101237.13;5230551;28;20030;-72
2022/12/19 15:44:39;;;;;;;6.40;3.35;;;;;;;9.35;94.67;101242.09;5245641;28;20044;-74
2022/12/19 15:47:24;;;;;;;6.82;3.38;;;;;;;9.38;94.50;101226.88;5244350;28;20017;-73
2022/12/19 15:49:57;;;;;;;3.00;2.72;;;;;;;9.38;93.83;101234.38;5236700;28;20480;-71
2022/12/19 15:52:28;;;;;;;5.82;2.88;;;;;;;9.38;93.82;101249.03;5247679;28;20026;-71
2022/12/19 15:54:59;;;;;;;3.80;3.03;;;;;;;9.33;94.26;101243.47;5260938;28;20044;-69
2022/12/19 15:57:37;;;;;;;5.22;3.00;;;;;;;9.34;94.28;101246.00;5245215;28;20107;-69
2022/12/19 16:00:17;;;;;;;3.80;3.42;;;;;;;9.35;93.74;101241.28;5252337;28;20041;-70
2022/12/19 16:02:50;;;;;;;4.47;3.53;;;;;;;9.42;93.35;101247.41;5243581;28;20049;-69
2022/12/19 16:05:23;;;;;;;4.40;3.22;;;;;;;9.42;93.19;101239.09;5244218;28;20076;-71
2022/12/19 16:07:55;;;;;;;7.43;4.55;;;;;;;9.44;93.16;101238.84;5224213;28;20030;-71
2022/12/19 16:10:27;;;;;;;8.48;7.50;;;;;;;9.46;93.31;101243.00;5223170;28;20025;-71
2022/12/19 16:12:59;;;;;;;4.75;3.60;;;;;;;9.51;92.95;101234.69;5237704;28;20028;-70
2022/12/19 16:15:33;;;;;;;5.13;3.97;;;;;;;9.50;93.19;101229.44;5252211;28;20021;-69
2022/12/19 16:18:05;;;;;;;4.95;3.70;;;;;;;9.47;92.89;101225.25;5264199;28;20372;-69
2022/12/19 16:20:47;;;;;;;4.40;3.55;;;;;;;9.50;92.68;101227.47;5264998;28;20115;-71
2022/12/19 16:23:21;;;;;;;3.22;2.70;;;;;;;9.47;92.80;101236.34;5253914;28;20042;-70
2022/12/19 16:25:52;;;;;;;4.28;3.42;;;;;;;9.47;92.76;101239.13;5248296;28;20044;-69
2022/12/19 16:28:33;;;;;;;6.20;3.72;;;;;;;9.46;92.99;101243.00;5264643;28;20029;-69
2022/12/19 16:31:15;;;;;;;3.97;3.10;;;;;;;9.50;92.30;101233.03;5246317;28;20036;-69
2022/12/19 16:33:47;;;;;;;6.82;3.63;;;;;;;9.52;92.94;101235.53;5243749;28;20049;-68
2022/12/19 16:36:19;;;;;;;5.40;3.83;;;;;;;9.48;92.73;101235.22;5242269;28;20411;-68
